Time;durP1;ratioP1;P1;durP2;ratioP2;P2;SDS_P1;SDS_P2;PMS_P1;PMS_P2;Temp;Humidity;BMP_temperature;BMP_pressure;BME280_temperature;BME280_humidity;BME280_pressure;Samples;Min_cycle;Max_cycle;Signal;HPM_P1;HPM_P2
2022/06/16 00:04:25;;;;;;;3.83;2.42;;;19.20;71.10;;;;;;10504104;28;20040;-56
2022/06/16 00:09:26;;;;;;;3.17;1.95;;;19.20;71.20;;;;;;10504186;28;20024;-56
2022/06/16 00:14:27;;;;;;;2.78;2.03;;;19.20;71.30;;;;;;10501736;28;20048;-56
2022/06/16 00:19:28;;;;;;;3.13;1.80;;;19.10;71.30;;;;;;10502980;28;20024;-56
2022/06/16 00:24:29;;;;;;;2.90;2.30;;;19.10;71.30;;;;;;10501331;28;20028;-56
2022/06/16 00:29:30;;;;;;;4.03;2.15;;;19.10;71.40;;;;;;10502061;28;20031;-56
2022/06/16 00:34:30;;;;;;;2.60;1.90;;;19.10;71.50;;;;;;10501768;28;20032;-56
2022/06/16 00:39:31;;;;;;;2.83;2.22;;;19.10;71.50;;;;;;10505524;28;20027;-58
2022/06/16 00:44:32;;;;;;;4.63;2.20;;;19.00;71.50;;;;;;10507717;28;20032;-56
2022/06/16 00:49:35;;;;;;;3.38;2.17;;;19.00;71.60;;;;;;10499256;28;20032;-57
2022/06/16 00:55:06;;;;;;;1.92;1.75;;;19.00;71.60;;;;;;10503767;28;20132;-58
2022/06/16 01:00:17;;;;;;;3.05;2.00;;;19.00;71.60;;;;;;10507475;28;20048;-56
2022/06/16 01:05:17;;;;;;;3.05;1.90;;;19.00;71.70;;;;;;10508686;28;20043;-57
2022/06/16 01:10:19;;;;;;;3.08;2.10;;;18.90;71.70;;;;;;10507884;28;20040;-56
2022/06/16 01:15:29;;;;;;;3.25;2.13;;;18.90;71.70;;;;;;10508274;28;20040;-56
2022/06/16 01:20:51;;;;;;;3.63;2.00;;;18.90;71.80;;;;;;10503159;28;20052;-56
2022/06/16 01:26:17;;;;;;;3.35;2.35;;;18.90;71.80;;;;;;10504856;28;20381;-56
2022/06/16 01:31:24;;;;;;;4.50;2.35;;;18.80;71.80;;;;;;10502456;28;20013;-58
2022/06/16 01:36:52;;;;;;;2.58;1.90;;;18.80;71.80;;;;;;10502501;28;20065;-56
2022/06/16 01:42:05;;;;;;;4.03;2.10;;;18.80;71.90;;;;;;10506115;28;20142;-55
2022/06/16 01:47:13;;;;;;;3.50;2.35;;;18.80;71.90;;;;;;10502789;28;20033;-56
2022/06/16 01:52:21;;;;;;;3.70;2.10;;;18.70;71.90;;;;;;10507218;28;20139;-56
2022/06/16 01:57:33;;;;;;;3.20;1.77;;;18.70;72.00;;;;;;10505639;28;20028;-56
2022/06/16 02:02:37;;;;;;;3.17;2.03;;;18.70;72.00;;;;;;10505843;28;20017;-56
2022/06/16 02:07:57;;;;;;;2.67;2.33;;;18.70;72.10;;;;;;10511938;28;20075;-56
2022/06/16 02:13:04;;;;;;;2.58;2.10;;;18.60;72.10;;;;;;10506283;28;20032;-57
2022/06/16 02:18:09;;;;;;;3.28;2.10;;;18.60;72.10;;;;;;10504440;28;20055;-56
2022/06/16 02:23:10;;;;;;;5.18;2.78;;;18.60;72.10;;;;;;10506748;28;20024;-54
2022/06/16 02:28:12;;;;;;;2.35;1.90;;;18.60;72.20;;;;;;10507271;28;20028;-56
2022/06/16 02:33:33;;;;;;;5.90;2.60;;;18.60;72.20;;;;;;10507114;28;20119;-56
2022/06/16 02:38:40;;;;;;;2.53;2.00;;;18.50;72.30;;;;;;10506052;28;20463;-56
2022/06/16 02:44:02;;;;;;;4.32;2.25;;;18.50;72.40;;;;;;10505111;28;20028;-56
2022/06/16 02:49:02;;;;;;;2.30;2.05;;;18.50;72.40;;;;;;10508292;28;20148;-55
2022/06/16 02:54:32;;;;;;;4.57;1.92;;;18.40;72.40;;;;;;10510280;28;20049;-57
2022/06/16 02:59:45;;;;;;;2.75;2.15;;;18.40;72.50;;;;;;10500674;28;20035;-56
2022/06/16 03:04:57;;;;;;;2.78;2.00;;;18.40;72.50;;;;;;10507964;28;20032;-58
2022/06/16 03:09:58;;;;;;;2.90;2.08;;;18.30;72.60;;;;;;10501943;28;20020;-58
2022/06/16 03:14:58;;;;;;;4.60;2.55;;;18.30;72.60;;;;;;10503934;28;20032;-56
2022/06/16 03:19:59;;;;;;;2.70;2.13;;;18.30;72.70;;;;;;10505359;28;20086;-56
2022/06/16 03:25:00;;;;;;;4.22;2.00;;;18.30;72.80;;;;;;10508617;28;20031;-56
2022/06/16 03:30:01;;;;;;;5.53;2.60;;;18.20;72.70;;;;;;10508802;28;20423;-56
2022/06/16 03:35:01;;;;;;;5.90;2.80;;;18.20;72.80;;;;;;10505998;28;20080;-56
2022/06/16 03:40:02;;;;;;;3.55;2.35;;;18.20;72.90;;;;;;10513567;28;20458;-57
2022/06/16 03:45:04;;;;;;;3.38;2.35;;;18.20;72.80;;;;;;10505090;28;20035;-55
2022/06/16 03:50:05;;;;;;;3.40;2.30;;;18.20;72.90;;;;;;10499400;28;21326;-56
2022/06/16 03:55:07;;;;;;;3.55;2.13;;;18.20;73.00;;;;;;10502198;28;20078;-57
2022/06/16 04:00:09;;;;;;;2.72;2.30;;;18.10;72.90;;;;;;10508669;28;20327;-58
2022/06/16 04:05:10;;;;;;;3.47;2.45;;;18.10;73.00;;;;;;10502442;28;20032;-57
2022/06/16 04:10:11;;;;;;;3.65;2.20;;;18.10;73.00;;;;;;10507517;28;20044;-56
2022/06/16 04:15:12;;;;;;;3.67;2.30;;;18.10;73.60;;;;;;10507123;28;20047;-61
2022/06/16 04:20:12;;;;;;;2.85;2.00;;;18.10;73.00;;;;;;10504064;28;20393;-57
2022/06/16 04:25:16;;;;;;;3.15;2.67;;;18.10;73.00;;;;;;10504753;28;20025;-56
2022/06/16 04:30:17;;;;;;;2.80;2.17;;;18.10;73.10;;;;;;10503042;28;20023;-56
2022/06/16 04:35:18;;;;;;;3.97;2.35;;;18.10;73.00;;;;;;10505678;28;20037;-56
2022/06/16 04:40:19;;;;;;;2.88;2.20;;;18.00;73.00;;;;;;10507712;28;20098;-56
2022/06/16 04:45:20;;;;;;;3.67;2.47;;;18.10;73.10;;;;;;10507269;28;20112;-56
2022/06/16 04:50:21;;;;;;;4.10;2.92;;;18.00;73.10;;;;;;10504205;28;20107;-56
2022/06/16 04:55:22;;;;;;;4.57;2.30;;;18.00;73.20;;;;;;10503484;28;20044;-58
2022/06/16 05:00:23;;;;;;;4.07;2.13;;;18.00;73.50;;;;;;10506508;28;20017;-56
2022/06/16 05:05:23;;;;;;;3.72;2.03;;;18.00;73.40;;;;;;10505538;28;20507;-56
2022/06/16 05:10:24;;;;;;;3.58;2.33;;;18.00;73.50;;;;;;10502492;28;20037;-56
2022/06/16 05:15:25;;;;;;;4.32;2.50;;;18.00;73.50;;;;;;10505527;28;20397;-58
2022/06/16 05:20:26;;;;;;;3.05;2.08;;;18.00;73.50;;;;;;10498901;28;20021;-59
2022/06/16 05:25:26;;;;;;;6.85;2.42;;;18.00;73.50;;;;;;10500134;28;20451;-57
2022/06/16 05:30:27;;;;;;;3.85;1.95;;;18.00;73.50;;;;;;10505043;28;20074;-58
2022/06/16 05:35:28;;;;;;;2.42;2.00;;;18.00;73.60;;;;;;10508605;28;20105;-61
2022/06/16 05:40:29;;;;;;;4.97;2.30;;;18.00;73.60;;;;;;10516305;28;20024;-64
2022/06/16 05:45:30;;;;;;;5.57;2.15;;;18.00;73.60;;;;;;10518335;28;20146;-61
2022/06/16 05:50:30;;;;;;;2.60;2.38;;;18.00;73.60;;;;;;10512414;28;20044;-60
2022/06/16 05:55:31;;;;;;;3.08;2.10;;;18.00;73.70;;;;;;10515244;28;20032;-61
2022/06/16 06:00:32;;;;;;;2.78;2.05;;;18.00;73.90;;;;;;10513107;28;20497;-62
2022/06/16 06:05:33;;;;;;;3.47;2.33;;;18.00;73.90;;;;;;10516107;28;20031;-60
2022/06/16 06:21:14;;;;;;;3.05;1.58;;;18.00;73.90;;;;;;10511316;28;20468;-56
2022/06/16 06:26:15;;;;;;;4.47;1.88;;;18.00;73.90;;;;;;10508679;28;20024;-61
2022/06/16 06:31:15;;;;;;;2.22;1.77;;;18.00;73.90;;;;;;10510871;28;20435;-62
2022/06/16 06:36:16;;;;;;;3.25;1.70;;;18.10;74.00;;;;;;10514340;28;20044;-57
2022/06/16 06:41:17;;;;;;;2.90;1.70;;;18.10;73.90;;;;;;10510361;28;20020;-56
2022/06/16 06:46:18;;;;;;;2.45;1.70;;;18.10;74.00;;;;;;10508856;28;20500;-56
2022/06/16 06:51:18;;;;;;;2.72;1.90;;;18.10;74.00;;;;;;10512876;28;20031;-56
2022/06/16 06:56:19;;;;;;;4.82;1.90;;;18.10;74.00;;;;;;10501678;28;20047;-66
2022/06/16 07:01:20;;;;;;;2.47;1.30;;;18.10;74.00;;;;;;10508953;28;20082;-56
2022/06/16 07:06:21;;;;;;;2.03;1.30;;;18.10;74.00;;;;;;10508206;28;20042;-57
2022/06/16 07:11:22;;;;;;;2.35;1.58;;;18.10;74.00;;;;;;10506736;28;20052;-56
2022/06/16 07:16:22;;;;;;;2.42;1.45;;;18.20;74.20;;;;;;10515557;28;20101;-59
2022/06/16 07:21:24;;;;;;;2.38;1.50;;;18.20;74.20;;;;;;10513933;28;20424;-60
2022/06/16 07:26:24;;;;;;;2.45;1.48;;;18.20;74.20;;;;;;10516190;28;20028;-61
2022/06/16 07:31:26;;;;;;;2.22;1.42;;;18.20;74.10;;;;;;10511543;28;20024;-64
2022/06/16 07:36:27;;;;;;;3.63;1.40;;;18.20;74.10;;;;;;10512602;28;20040;-57
2022/06/16 07:41:31;;;;;;;1.35;1.25;;;18.30;74.10;;;;;;10514097;28;20173;-64
2022/06/16 07:46:32;;;;;;;2.75;1.40;;;18.30;74.00;;;;;;10509569;28;20039;-65
2022/06/16 07:51:33;;;;;;;1.83;1.30;;;18.30;74.00;;;;;;10511891;28;20028;-59
2022/06/16 07:56:34;;;;;;;2.58;1.30;;;18.40;74.00;;;;;;10512050;28;20040;-63
2022/06/16 08:01:35;;;;;;;2.00;1.27;;;18.30;73.90;;;;;;10512898;28;20024;-57
2022/06/16 08:06:37;;;;;;;2.83;1.17;;;18.30;73.90;;;;;;10507893;28;20043;-57
2022/06/16 08:16:58;;;;;;;1.17;1.08;;;18.40;73.80;;;;;;10502837;28;20910;-60
2022/06/16 08:21:59;;;;;;;2.05;1.00;;;18.40;73.70;;;;;;10505985;28;20027;-59
2022/06/16 08:27:02;;;;;;;2.90;1.30;;;18.50;73.80;;;;;;10508524;28;20601;-64
2022/06/16 08:32:03;;;;;;;1.95;1.23;;;18.50;73.70;;;;;;10502756;28;20063;-62
2022/06/16 08:37:04;;;;;;;1.95;1.20;;;18.50;73.70;;;;;;10513216;28;20080;-62
2022/06/16 08:42:22;;;;;;;3.08;1.13;;;18.60;73.70;;;;;;10505194;28;20027;-61
2022/06/16 08:48:09;;;;;;;2.75;0.90;;;18.60;73.80;;;;;;10505495;28;20038;-67
2022/06/16 08:53:36;;;;;;;1.25;1.15;;;18.60;73.80;;;;;;10498206;28;20040;-63
2022/06/16 08:58:45;;;;;;;2.55;1.25;;;18.60;73.70;;;;;;10507260;28;20040;-65
2022/06/16 09:03:51;;;;;;;1.98;1.17;;;18.70;73.50;;;;;;10503434;28;20556;-65
2022/06/16 09:10:15;;;;;;;1.77;1.10;;;18.70;73.40;;;;;;10501727;28;20039;-65
2022/06/16 09:15:11;;;;;;;;;;;18.80;73.40;;;;;;10508778;28;20139;-65
2022/06/16 09:20:22;;;;;;;1.52;1.30;;;18.80;73.50;;;;;;10510290;28;19958;-65
2022/06/16 09:25:33;;;;;;;2.65;1.10;;;18.90;73.20;;;;;;10511263;28;20020;-66
2022/06/16 09:30:39;;;;;;;1.42;1.23;;;18.90;73.10;;;;;;10515746;28;20040;-63
2022/06/16 09:35:48;;;;;;;2.38;1.35;;;19.00;73.10;;;;;;10513097;28;20519;-64
2022/06/16 09:42:32;;;;;;;5.50;1.85;;;19.00;73.10;;;;;;10513180;28;20245;-64
2022/06/16 09:46:35;;;;;;;4.43;2.38;;;19.10;72.90;;;;;;10508325;28;20037;-66
2022/06/16 09:51:47;;;;;;;5.15;2.30;;;19.20;72.20;;;;;;10515457;28;20021;-68
2022/06/16 09:56:51;;;;;;;3.10;2.15;;;19.30;72.30;;;;;;10513119;28;20055;-67
2022/06/16 10:01:57;;;;;;;3.83;2.53;;;19.50;71.90;;;;;;10510200;28;20024;-63
2022/06/16 10:07:41;;;;;;;3.67;2.60;;;19.60;71.20;;;;;;10511482;28;20041;-59
2022/06/16 10:12:49;;;;;;;6.53;2.40;;;19.60;72.20;;;;;;10442685;28;20044;-68
2022/06/16 10:17:51;;;;;;;5.93;2.40;;;19.60;71.60;;;;;;10510268;28;20056;-66
2022/06/16 10:23:15;;;;;;;4.28;2.38;;;19.70;71.80;;;;;;10505206;28;20035;-58
2022/06/16 10:28:22;;;;;;;3.20;2.30;;;19.80;71.50;;;;;;10505712;28;20047;-60
2022/06/16 10:33:28;;;;;;;5.18;2.53;;;19.90;71.10;;;;;;10508534;28;20036;-58
2022/06/16 10:38:42;;;;;;;6.35;3.03;;;20.10;71.20;;;;;;10507726;28;20074;-58
2022/06/16 10:43:43;;;;;;;5.70;2.88;;;20.20;70.20;;;;;;10505615;28;20396;-64
2022/06/16 10:48:53;;;;;;;4.43;2.55;;;20.20;70.80;;;;;;10508943;28;20039;-62
2022/06/16 10:54:21;;;;;;;6.90;3.08;;;20.30;71.10;;;;;;10505762;28;20079;-68
2022/06/16 10:59:27;;;;;;;5.60;2.80;;;20.50;70.60;;;;;;10506373;28;20025;-65
2022/06/16 11:04:41;;;;;;;5.00;2.67;;;20.70;70.40;;;;;;10505160;28;20020;-58
2022/06/16 11:09:44;;;;;;;4.53;2.75;;;20.80;70.10;;;;;;10503891;28;20107;-62
2022/06/16 11:14:53;;;;;;;9.95;2.55;;;20.90;69.90;;;;;;10469038;28;1233664;-69
2022/06/16 11:20:01;;;;;;;4.78;2.95;;;21.00;69.60;;;;;;10516710;28;20032;-62
2022/06/16 11:25:22;;;;;;;4.20;2.40;;;21.00;69.30;;;;;;10522279;28;20058;-61
2022/06/16 11:30:39;;;;;;;5.57;2.67;;;21.00;69.30;;;;;;10509690;28;20023;-67
2022/06/16 11:35:48;;;;;;;5.60;3.17;;;21.10;69.60;;;;;;10506640;28;20543;-60
2022/06/16 11:40:59;;;;;;;5.35;3.15;;;21.30;69.00;;;;;;10512454;28;20024;-61
2022/06/16 11:46:11;;;;;;;5.05;2.92;;;21.40;69.00;;;;;;10509003;28;20066;-59
2022/06/16 11:51:30;;;;;;;11.52;3.92;;;21.60;68.70;;;;;;10507817;28;20027;-59
2022/06/16 11:56:59;;;;;;;4.13;2.95;;;21.80;68.40;;;;;;10506999;28;20773;-59
2022/06/16 12:02:03;;;;;;;3.88;2.50;;;21.70;67.50;;;;;;10474706;28;20068;-59
2022/06/16 12:07:16;;;;;;;4.10;2.53;;;21.90;68.30;;;;;;10515548;28;20028;-58
2022/06/16 12:12:25;;;;;;;6.78;3.00;;;22.10;68.10;;;;;;10512512;28;20166;-59
2022/06/16 12:17:37;;;;;;;3.42;3.03;;;22.20;67.30;;;;;;10503210;28;20051;-64
2022/06/16 12:22:47;;;;;;;5.95;3.30;;;22.10;67.40;;;;;;10511309;28;20716;-59
2022/06/16 12:28:19;;;;;;;5.82;2.90;;;21.90;67.90;;;;;;10512679;28;20099;-59
2022/06/16 12:33:44;;;;;;;3.90;2.80;;;21.80;68.20;;;;;;10505525;28;20499;-63
2022/06/16 12:38:56;;;;;;;4.50;2.70;;;21.60;68.50;;;;;;10501467;28;20036;-61
2022/06/16 12:44:10;;;;;;;5.65;2.55;;;21.60;68.60;;;;;;10500579;28;20113;-60
2022/06/16 12:49:27;;;;;;;4.75;2.75;;;21.80;67.70;;;;;;10501528;28;20028;-65
2022/06/16 12:54:33;;;;;;;3.63;2.97;;;21.80;67.60;;;;;;10499093;28;20630;-64
2022/06/16 12:59:43;;;;;;;6.20;2.78;;;21.90;68.10;;;;;;10504421;28;20024;-62
2022/06/16 13:04:44;;;;;;;9.20;3.28;;;22.20;67.50;;;;;;10504652;28;20552;-63
2022/06/16 13:09:45;;;;;;;3.85;2.80;;;22.50;67.50;;;;;;10505304;28;20052;-64
2022/06/16 13:15:38;;;;;;;5.38;2.88;;;22.40;67.70;;;;;;10504639;28;20062;-60
2022/06/16 13:20:43;;;;;;;6.22;2.95;;;22.40;66.40;;;;;;10477107;28;20105;-62
2022/06/16 13:25:54;;;;;;;4.35;3.00;;;22.40;67.00;;;;;;10504068;28;20016;-60
2022/06/16 13:31:10;;;;;;;4.00;2.70;;;22.30;66.70;;;;;;10506138;28;20111;-64
2022/06/16 13:36:15;;;;;;;3.80;2.85;;;22.30;66.50;;;;;;10501741;28;20035;-62
2022/06/16 13:41:37;;;;;;;4.88;2.90;;;22.30;67.00;;;;;;10489533;28;20579;-65
2022/06/16 13:46:56;;;;;;;4.10;2.70;;;22.60;65.90;;;;;;10503594;28;20115;-65
2022/06/16 13:52:17;;;;;;;3.45;2.70;;;22.30;64.70;;;;;;10502569;28;20028;-63
2022/06/16 13:57:22;;;;;;;5.82;2.38;;;22.50;66.30;;;;;;10509172;28;20284;-63
2022/06/16 14:02:25;;;;;;;4.78;2.47;;;22.60;66.80;;;;;;10505624;28;20036;-62
2022/06/16 14:07:26;;;;;;;7.15;2.60;;;22.60;67.20;;;;;;10510326;28;20264;-62
2022/06/16 14:12:54;;;;;;;3.70;2.15;;;22.40;67.60;;;;;;10508366;28;20032;-58
2022/06/16 14:18:13;;;;;;;5.32;2.35;;;22.40;67.90;;;;;;10507395;28;20033;-61
2022/06/16 14:23:30;;;;;;;6.07;2.45;;;22.40;68.20;;;;;;10513400;28;20063;-58
2022/06/16 14:28:36;;;;;;;4.70;2.33;;;22.30;68.50;;;;;;10512908;28;20374;-61
2022/06/16 14:33:49;;;;;;;5.53;2.60;;;22.30;68.70;;;;;;10514036;28;20119;-63
2022/06/16 14:39:07;;;;;;;4.32;2.38;;;22.30;68.80;;;;;;10515796;28;20476;-63
2022/06/16 14:44:22;;;;;;;4.30;2.35;;;22.40;68.90;;;;;;10510626;28;20032;-61
2022/06/16 14:49:43;;;;;;;3.03;2.40;;;22.40;68.90;;;;;;10512557;28;20346;-60
2022/06/16 14:54:55;;;;;;;3.42;2.20;;;22.40;69.30;;;;;;10511786;28;20051;-58
2022/06/16 14:59:58;;;;;;;3.22;2.20;;;22.40;69.40;;;;;;10518466;28;20042;-62
2022/06/16 15:05:07;;;;;;;5.40;2.25;;;22.50;69.40;;;;;;10511306;28;20020;-57
2022/06/16 15:10:10;;;;;;;3.60;2.17;;;22.50;69.30;;;;;;10506808;28;20035;-59
2022/06/16 15:15:18;;;;;;;4.25;2.20;;;22.50;69.40;;;;;;10508449;28;20059;-64
2022/06/16 15:20:20;;;;;;;2.77;2.23;;;22.50;69.50;;;;;;10515176;28;20017;-60
2022/06/16 15:25:32;;;;;;;4.28;2.50;;;22.60;69.40;;;;;;10508312;28;20024;-59
2022/06/16 15:30:33;;;;;;;2.72;2.00;;;22.80;69.40;;;;;;10511923;28;20024;-63
2022/06/16 15:40:54;;;;;;;3.22;2.08;;;22.80;69.20;;;;;;10506398;28;20027;-59
2022/06/16 15:45:59;;;;;;;4.65;2.38;;;22.90;69.30;;;;;;10504764;28;20542;-63
2022/06/16 15:51:09;;;;;;;3.05;2.10;;;22.90;69.30;;;;;;10509631;28;20839;-59
2022/06/16 15:56:12;;;;;;;2.55;1.98;;;23.00;69.30;;;;;;10511282;28;20024;-58
2022/06/16 16:01:13;;;;;;;2.60;1.83;;;23.00;69.20;;;;;;10508399;28;20025;-56
2022/06/16 16:06:14;;;;;;;3.42;2.03;;;23.00;69.40;;;;;;10503047;28;20032;-59
2022/06/16 16:11:24;;;;;;;2.97;2.45;;;22.90;69.60;;;;;;10502020;28;20047;-56
2022/06/16 16:16:25;;;;;;;3.97;2.15;;;22.90;69.80;;;;;;10502935;28;20059;-57
2022/06/16 16:21:36;;;;;;;2.58;1.90;;;22.90;70.00;;;;;;10501977;28;20016;-59
2022/06/16 16:26:38;;;;;;;2.03;1.73;;;22.80;70.20;;;;;;10505768;28;20554;-59
2022/06/16 16:31:52;;;;;;;2.13;1.73;;;22.80;70.40;;;;;;10510580;28;20477;-57
2022/06/16 16:37:00;;;;;;;4.70;1.90;;;22.70;70.50;;;;;;10507826;28;20032;-56
2022/06/16 16:48:13;;;;;;;4.00;2.38;;;22.70;70.80;;;;;;10509569;28;20032;-59
2022/06/16 16:53:25;;;;;;;2.72;2.00;;;22.70;71.00;;;;;;10498846;28;20131;-57
2022/06/16 16:58:26;;;;;;;4.18;1.80;;;22.60;71.00;;;;;;10511393;28;20036;-56
2022/06/16 17:03:28;;;;;;;3.55;2.70;;;22.60;71.10;;;;;;10504600;28;20024;-58
2022/06/16 17:08:29;;;;;;;5.53;3.20;;;22.60;71.00;;;;;;10506067;28;20043;-59
2022/06/16 17:13:30;;;;;;;6.63;2.95;;;22.50;70.70;;;;;;10505523;28;20036;-57
2022/06/16 17:18:31;;;;;;;4.65;2.88;;;22.40;70.90;;;;;;10504083;28;20039;-63
2022/06/16 17:23:32;;;;;;;5.32;3.20;;;22.40;71.30;;;;;;10501331;28;20380;-66
2022/06/16 17:28:33;;;;;;;7.10;3.50;;;22.30;70.80;;;;;;10509032;28;20028;-66
2022/06/16 17:33:38;;;;;;;6.18;3.42;;;22.20;70.40;;;;;;10515591;28;20024;-62
2022/06/16 17:38:41;;;;;;;3.92;3.40;;;22.20;70.40;;;;;;10519872;28;20055;-67
2022/06/16 17:43:42;;;;;;;6.35;3.65;;;22.30;70.30;;;;;;10488768;28;20028;-64
2022/06/16 17:48:43;;;;;;;6.05;4.10;;;22.40;70.10;;;;;;10520017;28;20043;-59
2022/06/16 18:04:32;;;;;;;5.70;3.40;;;22.10;71.20;;;;;;10514140;28;20048;-61
2022/06/16 18:09:32;;;;;;;5.55;3.10;;;22.00;71.00;;;;;;10525235;28;20032;-61
2022/06/16 18:14:33;;;;;;;5.03;3.10;;;21.90;71.60;;;;;;10518895;28;20055;-63
2022/06/16 18:19:34;;;;;;;5.72;3.20;;;21.90;71.10;;;;;;10519691;28;20103;-61
2022/06/16 18:24:34;;;;;;;6.13;3.63;;;21.90;71.10;;;;;;10524041;28;20056;-66
2022/06/16 18:29:37;;;;;;;9.30;3.63;;;21.90;71.10;;;;;;10522093;28;20047;-64
2022/06/16 18:34:37;;;;;;;6.25;3.22;;;21.80;71.10;;;;;;10518996;28;20046;-64
2022/06/16 18:39:38;;;;;;;8.73;3.42;;;21.70;71.50;;;;;;10510755;28;20029;-59
2022/06/16 18:44:40;;;;;;;4.38;2.83;;;21.60;71.70;;;;;;10500784;28;20044;-58
2022/06/16 18:49:43;;;;;;;5.75;2.83;;;21.60;71.70;;;;;;10506665;28;20020;-58
2022/06/16 18:54:45;;;;;;;4.95;2.75;;;21.70;71.80;;;;;;10497164;28;20139;-65
2022/06/16 18:59:46;;;;;;;4.65;2.75;;;21.70;71.70;;;;;;10504425;28;20820;-57
2022/06/16 19:04:49;;;;;;;3.67;2.70;;;21.70;71.70;;;;;;10509265;28;20036;-62
2022/06/16 19:09:50;;;;;;;4.97;2.78;;;21.80;71.90;;;;;;10504335;28;20024;-57
2022/06/16 19:14:59;;;;;;;4.85;2.80;;;21.80;71.90;;;;;;10502395;28;20051;-64
2022/06/16 19:20:05;;;;;;;4.72;2.80;;;21.80;72.00;;;;;;10509563;28;20031;-63
2022/06/16 19:25:06;;;;;;;4.32;2.47;;;21.80;72.00;;;;;;10504726;28;20036;-64
2022/06/16 19:30:17;;;;;;;3.67;2.60;;;21.70;72.00;;;;;;10510989;28;20036;-59
2022/06/16 19:35:18;;;;;;;4.82;2.80;;;21.70;72.20;;;;;;10499579;28;20507;-64
2022/06/16 19:40:21;;;;;;;2.80;2.22;;;21.70;72.20;;;;;;10514880;28;20035;-60
2022/06/16 19:50:51;;;;;;;4.03;2.45;;;21.70;72.50;;;;;;10502548;28;20021;-65
2022/06/16 19:55:54;;;;;;;4.20;2.60;;;21.60;72.60;;;;;;10505947;28;20036;-65
2022/06/16 20:00:55;;;;;;;2.88;2.15;;;21.60;72.60;;;;;;10507612;28;20027;-60
2022/06/16 20:06:00;;;;;;;4.07;2.38;;;21.60;72.80;;;;;;10499564;28;20020;-58
2022/06/16 20:11:03;;;;;;;2.60;2.40;;;21.50;72.80;;;;;;10502852;28;20024;-59
2022/06/16 20:16:05;;;;;;;2.55;2.05;;;21.50;72.90;;;;;;10497126;28;20078;-59
2022/06/16 20:21:12;;;;;;;3.10;2.58;;;21.50;73.00;;;;;;10509561;28;20023;-58
2022/06/16 20:26:14;;;;;;;4.88;2.70;;;21.40;73.10;;;;;;10510980;28;20517;-58
2022/06/16 20:31:17;;;;;;;2.80;2.25;;;21.40;73.20;;;;;;10511586;28;20061;-60
2022/06/16 20:36:23;;;;;;;4.22;2.53;;;21.40;73.40;;;;;;10508900;28;20044;-65
2022/06/16 20:46:44;;;;;;;3.67;3.10;;;21.30;73.50;;;;;;10512336;28;20264;-63
2022/06/16 20:51:45;;;;;;;4.88;2.72;;;21.30;73.60;;;;;;10506880;28;20039;-59
2022/06/16 20:56:46;;;;;;;4.07;2.53;;;21.20;73.60;;;;;;10511821;28;20028;-61
2022/06/16 21:02:02;;;;;;;4.68;3.13;;;21.20;73.60;;;;;;10504378;28;20020;-64
2022/06/16 21:07:06;;;;;;;5.00;2.80;;;21.20;73.80;;;;;;10509645;28;20108;-57
2022/06/16 21:12:19;;;;;;;3.70;2.88;;;21.10;73.80;;;;;;10509760;28;20111;-59
2022/06/16 21:17:29;;;;;;;3.67;2.88;;;21.10;73.90;;;;;;10515867;28;20417;-57
2022/06/16 21:22:37;;;;;;;5.13;3.42;;;21.10;74.00;;;;;;10514643;28;20139;-57
2022/06/16 21:27:38;;;;;;;5.63;3.00;;;21.00;74.00;;;;;;10518571;28;20031;-57
2022/06/16 21:32:39;;;;;;;4.47;3.15;;;21.00;74.00;;;;;;10515408;28;20626;-61
2022/06/16 21:37:41;;;;;;;5.53;3.10;;;21.00;74.20;;;;;;10518597;28;20036;-60
2022/06/16 21:42:42;;;;;;;3.58;2.53;;;20.90;74.20;;;;;;10511193;28;20024;-57
2022/06/16 21:47:46;;;;;;;3.45;2.90;;;20.90;74.30;;;;;;10514407;28;20026;-60
2022/06/16 21:52:47;;;;;;;3.85;3.00;;;20.90;74.40;;;;;;10517419;28;20031;-61
2022/06/16 21:57:48;;;;;;;4.28;3.20;;;20.90;74.50;;;;;;10511769;28;20135;-63
2022/06/16 22:02:50;;;;;;;4.80;3.17;;;20.80;74.50;;;;;;10510841;28;20043;-61
2022/06/16 22:07:52;;;;;;;4.32;2.72;;;20.80;74.50;;;;;;10512584;28;20626;-60
2022/06/16 22:12:53;;;;;;;6.85;3.53;;;20.80;75.30;;;;;;10511313;28;20052;-57
2022/06/16 22:17:54;;;;;;;3.95;3.30;;;20.70;74.70;;;;;;10508653;28;20028;-61
2022/06/16 22:22:56;;;;;;;4.40;2.97;;;20.70;74.80;;;;;;10508461;28;20074;-60
2022/06/16 22:28:06;;;;;;;3.88;3.13;;;20.60;74.80;;;;;;10515680;28;20374;-61
2022/06/16 22:33:22;;;;;;;4.30;3.20;;;20.60;74.90;;;;;;10508125;28;20069;-58
2022/06/16 22:38:26;;;;;;;4.80;3.53;;;20.60;75.00;;;;;;10509841;28;20060;-63
2022/06/16 22:43:32;;;;;;;3.17;2.85;;;20.60;75.00;;;;;;10507040;28;20020;-56
2022/06/16 22:48:43;;;;;;;5.40;3.30;;;20.50;75.10;;;;;;10508221;28;20021;-58
2022/06/16 22:53:44;;;;;;;4.10;2.88;;;20.50;75.20;;;;;;10505913;28;20035;-62
2022/06/16 22:58:47;;;;;;;4.55;3.70;;;20.50;75.20;;;;;;10506200;28;20028;-56
2022/06/16 23:03:57;;;;;;;4.85;2.90;;;20.40;75.30;;;;;;10508984;28;20031;-60
2022/06/16 23:09:00;;;;;;;6.22;3.63;;;20.40;75.40;;;;;;10509348;28;20036;-64
2022/06/16 23:14:01;;;;;;;3.90;3.45;;;20.30;75.40;;;;;;10506139;28;20056;-58
2022/06/16 23:19:03;;;;;;;4.60;3.45;;;20.30;75.40;;;;;;10503727;28;20036;-58
2022/06/16 23:24:05;;;;;;;5.35;3.08;;;20.30;75.50;;;;;;10505536;28;20035;-63
2022/06/16 23:29:06;;;;;;;3.97;3.08;;;20.20;75.50;;;;;;10505677;28;20024;-56
2022/06/16 23:34:06;;;;;;;4.30;3.20;;;20.20;75.50;;;;;;10507022;28;20036;-57
2022/06/16 23:39:09;;;;;;;4.57;3.20;;;20.20;75.60;;;;;;10511762;28;20100;-60
2022/06/16 23:44:10;;;;;;;3.88;3.40;;;20.10;75.60;;;;;;10506032;28;20378;-57
2022/06/16 23:49:18;;;;;;;5.68;3.70;;;20.10;75.60;;;;;;10506251;28;20028;-58
2022/06/16 23:54:32;;;;;;;5.05;3.75;;;20.10;75.70;;;;;;10506538;28;20454;-59
2022/06/16 23:59:33;;;;;;;4.03;3.30;;;20.00;75.70;;;;;;10511865;28;20031;-59
